createdAt,value
2018-03-24T05:12:26.684Z,1.10
2018-03-24T05:14:54.630Z,1.00
2018-03-24T05:17:22.391Z,1.00
2018-03-24T05:19:49.929Z,1.00
2018-03-24T05:22:17.531Z,1.00
2018-03-24T05:24:45.551Z,0.90
2018-03-24T05:27:13.158Z,1.00
2018-03-24T05:29:40.702Z,1.00
2018-03-24T05:32:08.310Z,0.90
2018-03-24T05:34:35.901Z,0.90
2018-03-24T05:37:03.493Z,0.90
2018-03-24T05:39:31.061Z,0.90
2018-03-24T05:41:59.029Z,0.90
2018-03-24T05:44:26.644Z,0.90
2018-03-24T05:46:54.218Z,0.80
2018-03-24T05:49:21.842Z,0.70
2018-03-24T05:51:49.474Z,0.70
2018-03-24T05:54:17.126Z,0.70
2018-03-24T05:56:44.772Z,0.70
2018-03-24T05:59:16.746Z,0.80
2018-03-24T06:01:44.317Z,0.80
2018-03-24T06:04:11.862Z,0.90
2018-03-24T06:06:39.453Z,1.00
2018-03-24T06:09:07.393Z,1.10
2018-03-24T06:11:34.981Z,1.10
2018-03-24T06:14:02.922Z,1.20
2018-03-24T06:16:31.541Z,1.20
2018-03-24T06:18:59.115Z,1.30
2018-03-24T06:21:26.665Z,1.30
2018-03-24T06:23:54.413Z,1.40
2018-03-24T06:26:22.894Z,1.40
2018-03-24T06:28:50.468Z,1.50
2018-03-24T06:31:23.487Z,1.50
2018-03-24T06:33:51.022Z,1.60
2018-03-24T06:36:20.941Z,1.90
2018-03-24T06:38:48.466Z,1.90
2018-03-24T06:41:16.002Z,2.00
2018-03-24T06:43:44.019Z,2.10
2018-03-24T06:46:11.777Z,2.20
2018-03-24T06:48:39.314Z,2.40
2018-03-24T06:51:06.910Z,2.50
2018-03-24T06:53:34.458Z,2.60
2018-03-24T06:56:02.032Z,2.70
2018-03-24T06:58:29.689Z,2.80
2018-03-24T07:00:57.233Z,2.90
2018-03-24T07:03:24.781Z,2.90
2018-03-24T07:05:52.718Z,3.10
2018-03-24T07:08:20.266Z,3.10
2018-03-24T07:10:47.842Z,3.20
2018-03-24T07:13:15.407Z,3.30
2018-03-24T07:15:42.971Z,3.40
2018-03-24T07:18:10.514Z,3.60
2018-03-24T07:20:38.065Z,3.70
2018-03-24T07:23:05.641Z,3.80
2018-03-24T07:25:33.280Z,3.90
2018-03-24T07:28:00.794Z,4.00
2018-03-24T07:30:29.272Z,4.10
2018-03-24T07:32:57.301Z,4.40
2018-03-24T07:35:24.874Z,4.40
2018-03-24T07:37:52.440Z,4.50
2018-03-24T07:40:19.975Z,4.60
2018-03-24T07:42:47.553Z,4.80
2018-03-24T07:45:15.106Z,4.90
2018-03-24T07:47:42.659Z,4.90
2018-03-24T07:50:10.208Z,4.90
2018-03-24T07:52:38.799Z,5.10
2018-03-24T07:55:06.343Z,5.10
2018-03-24T07:57:33.909Z,5.20
2018-03-24T08:00:01.428Z,5.40
2018-03-24T08:02:28.977Z,5.60
2018-03-24T08:04:56.914Z,5.90
2018-03-24T08:07:24.504Z,5.90
2018-03-24T08:09:52.047Z,6.00
2018-03-24T08:12:19.591Z,6.10
2018-03-24T08:14:47.188Z,6.20
2018-03-24T08:17:15.154Z,6.30
2018-03-24T08:19:43.198Z,6.40
2018-03-24T08:22:10.820Z,6.40
2018-03-24T08:24:38.452Z,6.50
2018-03-24T08:27:06.773Z,6.60
2018-03-24T08:29:34.358Z,6.70
2018-03-24T08:32:01.948Z,6.70
2018-03-24T08:34:29.472Z,6.80
2018-03-24T08:36:57.042Z,6.90
2018-03-24T08:39:24.625Z,7.10
2018-03-24T08:41:52.233Z,7.10
2018-03-24T08:44:19.835Z,7.30
2018-03-24T08:46:47.369Z,7.40
2018-03-24T08:49:14.943Z,7.50
2018-03-24T08:51:42.495Z,7.60
2018-03-24T08:54:10.031Z,7.70
2018-03-24T08:56:37.630Z,7.80
2018-03-24T08:59:05.195Z,8.00
2018-03-24T09:01:33.147Z,8.20
2018-03-24T09:04:01.234Z,8.20
2018-03-24T09:06:29.628Z,8.40
2018-03-24T09:08:57.550Z,8.60
2018-03-24T09:11:25.201Z,8.60
2018-03-24T09:13:52.798Z,8.70
2018-03-24T09:16:20.411Z,8.90
2018-03-24T09:18:50.478Z,9.00
2018-03-24T09:21:20.511Z,9.10
2018-03-24T09:23:53.674Z,9.40
2018-03-24T09:26:22.413Z,9.40
2018-03-24T09:28:52.284Z,9.40
2018-03-24T09:31:20.620Z,9.70
2018-03-24T09:33:48.221Z,9.70
2018-03-24T09:36:15.807Z,9.80
2018-03-24T09:38:43.758Z,9.90
2018-03-24T09:41:11.377Z,9.90
2018-03-24T09:43:38.938Z,9.90
2018-03-24T09:46:06.527Z,10.10
2018-03-24T09:48:34.048Z,10.30
2018-03-24T09:51:01.670Z,10.70
2018-03-24T09:53:29.250Z,10.70
2018-03-24T09:55:57.735Z,10.80
2018-03-24T09:58:25.803Z,10.80
2018-03-24T10:00:53.388Z,10.90
2018-03-24T10:03:20.958Z,11.20
2018-03-24T10:05:48.830Z,11.30
2018-03-24T10:08:16.377Z,11.50
2018-03-24T10:10:44.034Z,11.80
2018-03-24T10:13:11.823Z,12.20
2018-03-24T10:15:39.997Z,12.20
2018-03-24T10:18:07.542Z,12.30
2018-03-24T10:23:44.520Z,11.60
2018-03-24T10:26:12.124Z,11.50
2018-03-24T10:28:39.691Z,11.40
2018-03-24T10:31:07.253Z,11.30
2018-03-24T10:36:35.481Z,11.30
2018-03-24T10:39:03.964Z,10.80
2018-03-24T10:41:31.533Z,10.80
2018-03-24T10:43:59.138Z,10.80
2018-03-24T10:46:26.807Z,11.10
2018-03-24T10:48:54.377Z,11.40
2018-03-24T10:51:22.009Z,11.70
2018-03-24T10:53:49.581Z,12.20
2018-03-24T10:56:17.248Z,12.50
2018-03-24T10:58:44.836Z,12.50
2018-03-24T11:01:13.682Z,12.40
2018-03-24T11:03:41.292Z,12.40
2018-03-24T11:06:09.650Z,12.10
2018-03-24T11:08:37.210Z,12.00
2018-03-24T11:11:04.748Z,11.90
2018-03-24T11:13:32.293Z,12.00
2018-03-24T11:15:59.917Z,12.10
2018-03-24T11:18:28.785Z,12.50
2018-03-24T11:20:56.740Z,12.60
2018-03-24T11:23:24.906Z,12.60
2018-03-24T11:25:52.431Z,12.60
2018-03-24T11:28:20.006Z,12.60
2018-03-24T11:30:47.589Z,13.10
2018-03-24T11:33:15.177Z,13.70
2018-03-24T11:35:43.108Z,14.70
2018-03-24T11:38:10.691Z,14.80
2018-03-24T11:40:38.630Z,16.00
2018-03-24T11:43:06.272Z,16.00
2018-03-24T11:45:33.853Z,15.80
2018-03-24T11:48:02.967Z,16.10
2018-03-24T11:50:30.559Z,16.80
2018-03-24T11:52:58.525Z,16.30
2018-03-24T11:55:26.569Z,15.60
2018-03-24T11:57:54.209Z,15.60
2018-03-24T12:00:21.805Z,14.90
2018-03-24T12:02:49.630Z,14.40
2018-03-24T12:05:17.207Z,14.00
2018-03-24T12:07:45.317Z,13.70
2018-03-24T12:10:12.909Z,13.60
2018-03-24T12:12:40.637Z,13.40
2018-03-24T12:15:08.244Z,13.20
2018-03-24T12:17:35.904Z,13.10
2018-03-24T12:20:03.513Z,13.10
2018-03-24T12:22:31.159Z,13.10
2018-03-24T12:24:58.773Z,13.30
2018-03-24T12:27:26.360Z,13.50
2018-03-24T12:29:53.967Z,14.70
2018-03-24T12:32:21.896Z,19.20
2018-03-24T12:34:49.511Z,19.20
2018-03-24T12:37:17.495Z,18.80
2018-03-24T12:39:45.137Z,18.80
2018-03-24T12:42:12.730Z,17.00
2018-03-24T12:44:40.278Z,15.80
2018-03-24T12:47:07.869Z,15.30
2018-03-24T12:49:35.437Z,15.40
2018-03-24T12:52:03.070Z,15.50
2018-03-24T12:54:30.656Z,16.50
2018-03-24T12:56:58.240Z,16.80
2018-03-24T12:59:26.200Z,23.70
2018-03-24T13:01:53.770Z,23.60
2018-03-24T13:04:21.717Z,28.50
2018-03-24T13:06:49.345Z,28.50
2018-03-24T13:09:16.936Z,30.10
2018-03-24T13:11:44.518Z,29.90
2018-03-24T13:14:12.486Z,30.50
2018-03-24T13:16:40.481Z,30.30
2018-03-24T13:19:08.038Z,30.30
2018-03-24T13:21:36.533Z,30.50
2018-03-24T13:24:04.212Z,30.80
2018-03-24T13:26:31.813Z,30.90
2018-03-24T13:28:59.366Z,30.60
2018-03-24T13:31:26.977Z,30.10
2018-03-24T13:33:54.619Z,29.60
2018-03-24T13:36:22.218Z,28.10
2018-03-24T13:38:49.779Z,27.10
2018-03-24T13:41:17.380Z,26.80
2018-03-24T13:43:45.350Z,26.00
2018-03-24T13:46:13.351Z,25.90
2018-03-24T13:48:41.860Z,25.90
2018-03-24T13:51:09.447Z,25.30
2018-03-24T13:53:37.000Z,26.10
2018-03-24T13:56:04.632Z,26.80
2018-03-24T13:58:32.225Z,27.00
2018-03-24T14:01:00.750Z,26.60
2018-03-24T14:03:28.628Z,26.50
2018-03-24T14:05:56.214Z,25.50
2018-03-24T14:08:30.949Z,25.70
2018-03-24T14:11:00.056Z,26.20
2018-03-24T14:13:30.338Z,27.10
2018-03-24T14:16:01.460Z,25.80
2018-03-24T14:18:30.330Z,25.80
2018-03-24T14:20:58.319Z,25.90
2018-03-24T14:23:25.850Z,25.90
2018-03-24T14:25:53.890Z,24.80
2018-03-24T14:28:21.756Z,24.80
2018-03-24T14:30:49.442Z,25.00
2018-03-24T14:33:17.003Z,25.40
2018-03-24T14:35:45.188Z,25.20
2018-03-24T14:38:13.098Z,25.70
2018-03-24T14:40:41.090Z,26.80
2018-03-24T14:43:08.665Z,27.00
2018-03-24T14:45:36.736Z,27.40
2018-03-24T14:48:06.904Z,28.70
2018-03-24T14:50:35.387Z,29.50
2018-03-24T14:53:04.169Z,27.50
2018-03-24T14:55:31.750Z,27.50
2018-03-24T14:58:01.471Z,27.70
2018-03-24T15:00:29.308Z,27.10
2018-03-24T15:02:58.079Z,24.40
2018-03-24T15:05:26.046Z,23.70
2018-03-24T15:07:54.257Z,22.90
2018-03-24T15:10:23.185Z,22.90
2018-03-24T15:12:50.949Z,21.30
2018-03-24T15:15:18.586Z,19.90
2018-03-24T15:17:46.149Z,18.60
2018-03-24T15:20:13.828Z,17.70
2018-03-24T15:22:41.410Z,17.80
2018-03-24T15:25:08.997Z,19.50
2018-03-24T15:27:36.662Z,21.00
2018-03-24T15:30:16.167Z,21.80
2018-03-24T15:33:04.350Z,21.60
2018-03-24T15:35:34.663Z,22.90
2018-03-24T15:38:05.029Z,22.80
2018-03-24T15:40:32.598Z,23.00
2018-03-24T15:43:00.253Z,22.80
2018-03-24T15:45:28.772Z,21.70
2018-03-24T15:47:59.166Z,20.40
2018-03-24T15:50:28.623Z,19.70
2018-03-24T15:52:57.545Z,17.90
2018-03-24T15:55:25.578Z,17.90
2018-03-24T15:57:54.106Z,19.00
2018-03-24T16:00:23.021Z,19.00
2018-03-24T16:02:51.954Z,19.40
2018-03-24T16:05:19.596Z,19.50
2018-03-24T16:07:47.879Z,19.80
2018-03-24T16:10:15.922Z,21.20
2018-03-24T16:12:45.807Z,22.80
2018-03-24T16:15:13.496Z,24.00
2018-03-24T16:17:41.181Z,24.80
2018-03-24T16:20:08.759Z,25.60
2018-03-24T16:22:36.328Z,26.00
2018-03-24T16:25:03.930Z,26.00
2018-03-24T16:27:31.596Z,25.70
2018-03-24T16:29:59.537Z,24.90
2018-03-24T16:32:27.459Z,23.60
2018-03-24T16:34:57.264Z,22.70
2018-03-24T16:37:24.828Z,21.80
2018-03-24T16:39:53.305Z,21.30
2018-03-24T16:42:21.786Z,21.60
2018-03-24T16:44:50.460Z,22.20
2018-03-24T16:47:18.062Z,22.20
2018-03-24T16:49:45.742Z,22.50
2018-03-24T16:52:13.315Z,22.00
2018-03-24T16:54:40.913Z,21.00
2018-03-24T16:57:08.445Z,20.00
2018-03-24T16:59:36.027Z,19.30
2018-03-24T17:02:04.294Z,18.70
2018-03-24T17:04:31.912Z,18.20
2018-03-24T17:06:59.476Z,18.30
2018-03-24T17:09:27.742Z,18.50
2018-03-24T17:11:55.340Z,18.50
2018-03-24T17:14:23.871Z,18.30
2018-03-24T17:16:52.096Z,17.10
2018-03-24T17:19:19.663Z,17.10
2018-03-24T17:21:47.218Z,16.80
2018-03-24T17:24:14.821Z,16.60
2018-03-24T17:26:42.786Z,15.00
2018-03-24T17:29:10.742Z,13.90
2018-03-24T17:31:38.278Z,13.90
2018-03-24T17:34:06.683Z,13.00
2018-03-24T17:36:36.427Z,11.60
2018-03-24T17:39:03.980Z,11.60
2018-03-24T17:41:31.578Z,11.10
2018-03-24T17:43:59.531Z,10.70
2018-03-24T17:46:27.216Z,10.30
2018-03-24T17:48:54.808Z,10.00
2018-03-24T17:51:22.410Z,9.80
2018-03-24T17:53:49.974Z,9.60
2018-03-24T17:56:17.631Z,9.50
2018-03-24T17:58:45.240Z,9.30
2018-03-24T18:01:12.794Z,9.20
2018-03-24T18:03:41.565Z,9.10
2018-03-24T18:06:10.086Z,8.90
2018-03-24T18:08:38.063Z,8.80
2018-03-24T18:11:06.144Z,8.70
2018-03-24T19:26:39.546Z,6.50
